createdAt,value
2019-03-03T00:28:58.857Z,12.27
2019-03-03T00:29:57.524Z,12.32
2019-03-03T00:32:37.991Z,12.5
2019-03-03T00:36:11.192Z,12.53
2019-03-03T00:37:09.760Z,12.56
2019-03-03T00:38:08.343Z,12.65
2019-03-03T00:40:06.480Z,12.59
2019-03-03T00:41:05.796Z,12.7
2019-03-03T00:42:04.087Z,12.59
2019-03-03T00:43:02.660Z,12.65
2019-03-03T00:44:01.322Z,12.67
2019-03-03T00:44:59.856Z,12.71
2019-03-03T00:47:08.118Z,12.79
2019-03-03T00:48:06.677Z,12.82
2019-03-03T00:49:05.317Z,12.79
2019-03-03T00:50:03.919Z,12.72
2019-03-03T00:51:02.626Z,12.75
2019-03-03T00:53:37.194Z,12.87
2019-03-03T00:56:00.149Z,12.89
2019-03-03T00:56:58.685Z,12.95
2019-03-03T01:11:43.115Z,13.08
2019-03-03T01:12:41.603Z,13
2019-03-03T01:14:31.215Z,13.07
2019-03-03T01:15:29.781Z,13
2019-03-03T01:17:21.238Z,13.01
2019-03-03T01:18:20.123Z,13.01
2019-03-03T01:19:18.798Z,13.03
2019-03-03T01:20:17.675Z,13.01
2019-03-03T01:21:16.180Z,13.01
2019-03-03T01:22:14.855Z,12.96
2019-03-03T01:23:13.466Z,13.01
2019-03-03T01:24:12.478Z,12.95
2019-03-03T01:25:11.316Z,12.82
2019-03-03T01:26:10.017Z,12.93
2019-03-03T01:28:33.078Z,12.97
2019-03-03T01:29:31.776Z,12.96
2019-03-03T01:30:30.335Z,12.95
2019-03-03T01:31:28.856Z,12.87
2019-03-03T01:36:45.160Z,12.87
2019-03-03T01:37:43.861Z,12.78
2019-03-03T01:39:45.740Z,12.86
2019-03-03T01:40:44.249Z,12.72
2019-03-03T01:44:41.210Z,12.78
2019-03-03T01:56:20.909Z,12.75
2019-03-03T01:57:19.586Z,12.72
2019-03-03T01:58:18.076Z,12.83
2019-03-03T01:59:16.677Z,12.74
2019-03-03T02:01:49.395Z,12.83
2019-03-03T02:02:47.907Z,12.77
2019-03-03T02:03:46.516Z,12.82
2019-03-03T02:04:45.398Z,12.86
2019-03-03T02:06:47.980Z,12.86
2019-03-03T02:07:46.564Z,12.83
2019-03-03T02:08:45.329Z,12.78
2019-03-03T02:13:52.416Z,12.96
2019-03-03T02:14:50.959Z,13.03
2019-03-03T02:16:35.535Z,12.89
2019-03-03T02:17:34.072Z,13
2019-03-03T02:19:33.937Z,12.77
2019-03-03T02:20:32.529Z,12.92
2019-03-03T02:24:46.881Z,12.83
2019-03-03T02:26:48.301Z,12.83
2019-03-03T02:27:46.865Z,12.86
2019-03-03T02:28:45.653Z,12.79
2019-03-03T02:29:44.200Z,12.82
2019-03-03T02:30:42.859Z,12.78
2019-03-03T02:32:44.255Z,12.71
2019-03-03T02:33:42.876Z,12.71
2019-03-03T02:35:42.611Z,12.79
2019-03-03T02:37:42.919Z,12.77
2019-03-03T02:38:41.461Z,12.71
2019-03-03T02:39:39.977Z,12.67
2019-03-03T02:40:38.613Z,12.64
2019-03-03T02:41:37.313Z,12.68
2019-03-03T02:42:35.918Z,12.67
2019-03-03T02:44:36.664Z,12.67
2019-03-03T02:45:35.260Z,12.56
2019-03-03T02:48:09.929Z,12.5
2019-03-03T02:49:08.493Z,12.59
2019-03-03T02:50:07.511Z,12.53
2019-03-03T02:53:00.582Z,12.53
2019-03-03T02:53:59.312Z,12.46
2019-03-03T02:54:57.910Z,12.53
2019-03-03T03:15:35.564Z,12.35
2019-03-03T03:16:34.136Z,12.38
2019-03-03T03:18:44.873Z,12.47
2019-03-03T03:19:43.701Z,12.35
2019-03-03T03:20:42.297Z,12.35
2019-03-03T03:21:40.995Z,12.24
2019-03-03T03:22:39.807Z,12.31
2019-03-03T03:23:38.291Z,12.28
2019-03-03T03:26:00.852Z,12.31
2019-03-03T03:26:59.410Z,12.29
2019-03-03T03:27:57.970Z,12.23
2019-03-03T03:28:56.511Z,12.24
2019-03-03T03:29:55.086Z,12.1
2019-03-03T03:32:17.666Z,12.12
2019-03-03T03:33:16.942Z,12.16
2019-03-03T03:34:15.574Z,12.28
2019-03-03T03:35:14.098Z,12.28
2019-03-03T03:36:12.785Z,12.32
2019-03-03T03:54:22.599Z,12.12
2019-03-03T03:55:21.326Z,12.1
2019-03-03T03:57:44.130Z,12.29
2019-03-03T03:58:42.653Z,12.39
2019-03-03T03:59:41.432Z,12.41
2019-03-03T04:00:39.992Z,12.39
2019-03-03T04:01:38.563Z,12.39
2019-03-03T04:02:37.298Z,12.28
2019-03-03T04:03:35.816Z,12.27
2019-03-03T04:04:34.459Z,12.42
2019-03-03T04:05:32.978Z,12.41
2019-03-03T04:06:31.567Z,12.37
2019-03-03T04:08:31.883Z,12.37
2019-03-03T04:09:30.343Z,12.24
2019-03-03T04:10:29.203Z,12.29
2019-03-03T04:11:27.819Z,12.32
2019-03-03T04:12:26.333Z,12.32
2019-03-03T04:13:24.834Z,12.35
2019-03-03T04:14:23.474Z,12.19
2019-03-03T04:15:21.969Z,12.38
2019-03-03T04:16:20.756Z,12.35
2019-03-03T04:17:19.318Z,12.41
2019-03-03T04:18:17.998Z,12.45
2019-03-03T04:19:17.508Z,12.41
2019-03-03T04:20:16.368Z,12.49
2019-03-03T04:21:14.979Z,12.59
2019-03-03T04:24:28.617Z,12.49
2019-03-03T04:25:27.404Z,12.56
2019-03-03T04:27:50.316Z,12.53
2019-03-03T04:28:48.881Z,12.49
2019-03-03T04:29:47.688Z,12.7
2019-03-03T04:30:46.249Z,12.52
2019-03-03T04:31:44.803Z,12.67
2019-03-03T04:32:43.585Z,12.67
2019-03-03T04:33:42.080Z,12.7
2019-03-03T04:34:41.637Z,12.68
2019-03-03T04:35:40.279Z,12.65
2019-03-03T04:36:38.885Z,12.59
2019-03-03T04:37:37.517Z,12.56
2019-03-03T04:38:36.108Z,12.65
2019-03-03T04:39:34.639Z,12.68
2019-03-03T04:40:33.471Z,12.59
2019-03-03T04:41:32.044Z,12.54
2019-03-03T04:42:30.626Z,12.65
2019-03-03T04:43:29.387Z,12.75
2019-03-03T04:44:27.864Z,12.67
2019-03-03T04:45:26.466Z,12.64
2019-03-03T04:46:24.961Z,12.72
2019-03-03T04:47:23.614Z,12.68
2019-03-03T04:48:22.163Z,12.64
2019-03-03T04:49:20.707Z,12.7
2019-03-03T04:50:19.520Z,12.74
2019-03-03T04:51:18.081Z,12.68
2019-03-03T04:52:17.050Z,12.7
2019-03-03T04:53:15.652Z,12.71
2019-03-03T04:54:14.178Z,12.71
2019-03-03T04:55:12.758Z,12.62
2019-03-03T04:56:12.290Z,12.72
2019-03-03T04:57:10.833Z,12.75
2019-03-03T04:58:09.692Z,12.67
2019-03-03T04:59:08.275Z,12.77
2019-03-03T05:00:06.935Z,12.72
2019-03-03T05:01:05.517Z,12.67
2019-03-03T05:02:04.067Z,12.74
2019-03-03T05:03:02.594Z,12.68
2019-03-03T05:04:01.109Z,12.71
2019-03-03T05:04:59.871Z,12.62
2019-03-03T05:05:58.502Z,12.67
2019-03-03T05:06:57.119Z,12.68
2019-03-03T05:07:55.829Z,12.7
2019-03-03T05:08:54.474Z,12.7
2019-03-03T05:09:53.074Z,12.7
2019-03-03T05:10:51.709Z,12.74
2019-03-03T05:11:50.332Z,12.75
2019-03-03T05:12:48.775Z,12.72
2019-03-03T05:13:47.465Z,12.71
2019-03-03T05:14:46.020Z,12.75
2019-03-03T05:17:15.749Z,12.7
2019-03-03T05:18:14.244Z,12.82
2019-03-03T05:19:12.867Z,12.86
2019-03-03T05:20:11.454Z,12.79
2019-03-03T05:22:36.457Z,13.03
2019-03-03T05:23:35.079Z,13
2019-03-03T05:24:34.628Z,13.07
2019-03-03T05:25:37.069Z,12.97
2019-03-03T05:37:15.218Z,13
2019-03-03T05:39:38.793Z,13.08
2019-03-03T05:40:37.517Z,13.1
2019-03-03T05:44:18.568Z,13.1
2019-03-03T05:45:17.194Z,13.01
2019-03-03T05:46:15.975Z,12.97
2019-03-03T05:47:14.571Z,13
2019-03-03T05:48:13.317Z,13.04
2019-03-03T05:49:12.644Z,13.11
2019-03-03T05:50:11.349Z,13.04
2019-03-03T05:51:09.859Z,13.12
2019-03-03T05:52:08.726Z,13.08
2019-03-03T05:53:07.350Z,13.1
2019-03-03T05:54:05.858Z,12.96
2019-03-03T05:55:04.437Z,12.95
2019-03-03T05:56:03.075Z,13
2019-03-03T05:57:01.702Z,13
2019-03-03T05:58:00.256Z,12.95
2019-03-03T05:58:58.939Z,12.87
2019-03-03T05:59:57.653Z,12.97
2019-03-03T06:00:56.317Z,13
2019-03-03T06:01:55.099Z,13.04
2019-03-03T06:02:53.682Z,13.01
2019-03-03T06:03:52.318Z,12.95
2019-03-03T06:04:50.934Z,12.97
2019-03-03T06:05:49.696Z,12.96
2019-03-03T06:06:48.370Z,12.89
2019-03-03T06:07:47.034Z,12.93
2019-03-03T06:08:45.729Z,12.95
2019-03-03T06:09:44.291Z,12.96
2019-03-03T06:10:43.065Z,12.86
2019-03-03T06:11:41.889Z,12.82
2019-03-03T06:12:40.483Z,12.7
2019-03-03T06:13:39.207Z,12.74
2019-03-03T06:14:37.769Z,12.72
2019-03-03T06:15:36.443Z,12.75
2019-03-03T06:16:34.867Z,12.65
2019-03-03T06:17:33.459Z,12.65
2019-03-03T06:18:32.066Z,12.67
2019-03-03T06:19:30.654Z,12.52
2019-03-03T06:20:29.539Z,12.7
2019-03-03T06:21:28.097Z,12.65
2019-03-03T06:22:26.762Z,12.68
2019-03-03T06:23:25.378Z,12.71
2019-03-03T06:24:23.964Z,12.7
2019-03-03T06:25:22.537Z,12.82
2019-03-03T06:26:21.025Z,12.75
2019-03-03T06:27:19.619Z,12.72
2019-03-03T06:28:18.143Z,12.82
2019-03-03T06:29:16.892Z,12.72
2019-03-03T06:30:15.726Z,12.62
2019-03-03T06:31:14.276Z,12.62
2019-03-03T06:32:13.483Z,12.67
2019-03-03T06:33:12.043Z,12.56
2019-03-03T06:34:10.629Z,12.65
2019-03-03T06:35:10.219Z,12.67
2019-03-03T06:36:10.876Z,12.53
2019-03-03T06:37:09.521Z,12.56
2019-03-03T06:38:08.059Z,12.52
2019-03-03T06:39:06.696Z,12.57
2019-03-03T06:40:05.524Z,12.6
2019-03-03T06:41:04.279Z,12.65
2019-03-03T06:42:02.893Z,12.59
2019-03-03T06:43:01.684Z,12.53
2019-03-03T06:44:00.344Z,12.52
2019-03-03T06:44:59.122Z,12.62
2019-03-03T06:45:57.812Z,12.59
2019-03-03T06:46:56.356Z,12.65
2019-03-03T06:47:54.996Z,12.65
2019-03-03T06:48:53.618Z,12.6
2019-03-03T06:49:52.126Z,12.7
2019-03-03T06:50:52.806Z,12.64
2019-03-03T06:51:49.311Z,12.62
2019-03-03T06:52:47.930Z,12.64
2019-03-03T06:53:46.586Z,12.56
2019-03-03T06:54:46.755Z,12.52
2019-03-03T06:57:11.702Z,12.53
2019-03-03T06:58:10.444Z,12.68
2019-03-03T06:59:09.126Z,12.67
2019-03-03T07:00:07.796Z,12.74
2019-03-03T07:01:06.344Z,12.54
2019-03-03T07:02:05.008Z,12.68
2019-03-03T07:03:03.719Z,12.6
2019-03-03T07:04:02.332Z,12.65
2019-03-03T07:05:00.943Z,12.65
2019-03-03T07:05:59.660Z,12.71
2019-03-03T07:06:58.243Z,12.67
2019-03-03T07:07:56.808Z,12.57
2019-03-03T07:08:55.362Z,12.64
2019-03-03T07:09:53.979Z,12.67
2019-03-03T07:10:52.546Z,12.65
2019-03-03T07:11:51.261Z,12.65
2019-03-03T07:12:50.873Z,12.54
2019-03-03T07:13:49.550Z,12.59
2019-03-03T07:14:48.094Z,12.64
2019-03-03T07:15:46.679Z,12.67
2019-03-03T07:16:45.427Z,12.68
2019-03-03T07:17:44.012Z,12.7
2019-03-03T07:18:43.213Z,12.68
2019-03-03T07:19:41.907Z,12.7
2019-03-03T07:20:40.572Z,12.67
2019-03-03T07:21:39.490Z,12.67
2019-03-03T07:22:38.214Z,12.67
2019-03-03T07:23:36.866Z,12.65
2019-03-03T07:25:36.499Z,12.72
2019-03-03T07:26:35.299Z,12.79
2019-03-03T07:27:33.852Z,12.83
2019-03-03T07:28:32.406Z,12.83
2019-03-03T07:29:30.951Z,12.86
2019-03-03T07:30:29.533Z,12.68
2019-03-03T07:31:28.058Z,12.68
2019-03-03T07:32:26.674Z,12.89
2019-03-03T07:33:25.365Z,12.86
2019-03-03T07:34:23.955Z,12.93
2019-03-03T07:35:22.567Z,12.93
2019-03-03T07:36:21.341Z,12.89
2019-03-03T07:37:19.929Z,13.03
2019-03-03T07:38:19.448Z,12.82
2019-03-03T07:39:18.082Z,12.93
2019-03-03T07:40:16.652Z,12.97
2019-03-03T07:41:15.212Z,12.96
2019-03-03T07:44:36.616Z,12.93
2019-03-03T07:48:59.352Z,13.23
2019-03-03T07:49:57.919Z,13.17
2019-03-03T07:50:56.503Z,13
2019-03-03T07:51:55.205Z,12.95
2019-03-03T07:54:35.665Z,13.07
2019-03-03T07:55:34.252Z,13.1
2019-03-03T07:56:32.830Z,13.1
2019-03-03T08:23:04.443Z,13.1
2019-03-03T08:24:03.189Z,13.1
2019-03-03T08:25:01.717Z,13.15
2019-03-03T08:26:00.275Z,13.1
2019-03-03T08:26:58.836Z,13.1
2019-03-03T08:27:57.555Z,12.97
2019-03-03T08:28:56.117Z,13.11
2019-03-03T08:29:54.686Z,13.1
2019-03-03T08:30:53.472Z,13.08
2019-03-03T08:31:52.103Z,13.11
2019-03-03T08:32:50.600Z,13.14
2019-03-03T08:33:49.202Z,13.22
2019-03-03T08:34:47.812Z,13.17
2019-03-03T08:35:46.413Z,13.23
2019-03-03T08:36:44.987Z,13.23
2019-03-03T08:37:43.701Z,13.25
2019-03-03T08:38:42.231Z,13.29
2019-03-03T08:39:40.824Z,13.42
2019-03-03T08:40:39.667Z,13.38
2019-03-03T08:41:38.240Z,13.41
2019-03-03T08:42:36.816Z,13.29
2019-03-03T08:43:35.545Z,13.45
2019-03-03T08:44:34.087Z,13.38
2019-03-03T08:45:32.813Z,13.39
2019-03-03T08:46:31.578Z,13.46
2019-03-03T08:47:30.143Z,13.45
2019-03-03T08:48:28.923Z,13.42
2019-03-03T08:49:27.613Z,13.46
2019-03-03T08:50:26.163Z,13.46
2019-03-03T08:51:24.721Z,13.38
2019-03-03T08:52:23.425Z,13.41
2019-03-03T08:53:22.004Z,13.42
2019-03-03T08:54:20.564Z,13.33
2019-03-03T08:55:19.455Z,13.29
2019-03-03T08:56:18.062Z,13.29
2019-03-03T08:57:16.612Z,13.41
2019-03-03T08:58:15.246Z,13.51
2019-03-03T09:00:55.549Z,13.57
2019-03-03T09:01:54.122Z,13.51
2019-03-03T09:26:04.824Z,14.18
2019-03-03T09:27:03.525Z,14.27
2019-03-03T09:28:52.920Z,14.33
2019-03-03T09:29:51.582Z,14.27
2019-03-03T09:30:50.257Z,14.29
2019-03-03T09:31:48.993Z,14.28
2019-03-03T09:32:47.784Z,14.29
2019-03-03T09:33:46.311Z,14.15
2019-03-03T09:34:44.924Z,14.15
2019-03-03T09:37:25.220Z,14.29
2019-03-03T09:40:46.568Z,14.27
2019-03-03T09:41:45.166Z,14.28
2019-03-03T09:53:23.487Z,14.18
2019-03-03T09:54:22.058Z,14.27
2019-03-03T09:55:20.669Z,14.29
2019-03-03T09:56:19.362Z,14.22
2019-03-03T09:57:18.137Z,14.27
2019-03-03T09:58:16.932Z,14.24
2019-03-03T09:59:15.569Z,14.28
2019-03-03T10:00:14.207Z,14.2
2019-03-03T10:01:12.904Z,14.32
2019-03-03T10:02:11.639Z,14.27
2019-03-03T10:04:09.925Z,14.36
2019-03-03T10:05:08.489Z,14.28
2019-03-03T10:06:07.188Z,14.22
2019-03-03T10:07:05.694Z,14.4
2019-03-03T10:08:04.291Z,14.36
2019-03-03T10:09:02.834Z,14.46
2019-03-03T10:10:01.691Z,14.52
2019-03-03T10:11:00.261Z,14.37
2019-03-03T10:11:58.880Z,14.36
2019-03-03T10:12:57.724Z,14.52
2019-03-03T10:13:56.294Z,14.5
2019-03-03T10:14:54.873Z,14.45
2019-03-03T10:15:53.552Z,14.6
2019-03-03T10:16:52.133Z,14.62
2019-03-03T10:17:50.742Z,14.62
2019-03-03T10:18:49.586Z,14.58
2019-03-03T10:19:48.200Z,14.65
2019-03-03T10:20:46.740Z,14.54
2019-03-03T10:21:45.414Z,14.46
2019-03-03T10:22:43.952Z,14.51
2019-03-03T10:23:42.526Z,14.51
2019-03-03T10:24:41.256Z,14.45
2019-03-03T10:25:39.952Z,14.68
2019-03-03T10:26:38.658Z,14.73
2019-03-03T10:27:37.356Z,14.68
2019-03-03T10:28:36.059Z,14.77
2019-03-03T10:29:34.785Z,14.75
2019-03-03T10:30:33.580Z,14.75
2019-03-03T10:31:32.212Z,14.69
2019-03-03T10:32:30.912Z,14.73
2019-03-03T10:33:29.638Z,14.62
2019-03-03T10:34:28.213Z,14.47
2019-03-03T10:35:26.898Z,14.42
2019-03-03T10:36:25.666Z,14.45
2019-03-03T10:37:24.240Z,14.39
2019-03-03T10:38:22.812Z,14.33
2019-03-03T10:39:21.389Z,14.37
2019-03-03T10:40:19.963Z,14.29
2019-03-03T10:41:18.550Z,14.27
2019-03-03T10:42:17.198Z,14.22
2019-03-03T10:43:15.731Z,14.15
2019-03-03T10:44:14.427Z,14.15
2019-03-03T10:45:13.062Z,14.2
2019-03-03T10:46:11.894Z,14.14
2019-03-03T10:47:10.432Z,14.15
2019-03-03T10:48:09.118Z,14.18
2019-03-03T10:49:07.806Z,14.15
2019-03-03T10:50:06.311Z,14.24
2019-03-03T10:51:04.859Z,14.29
2019-03-03T10:52:03.448Z,14.46
2019-03-03T10:53:02.114Z,14.37
2019-03-03T10:54:00.687Z,14.46
2019-03-03T10:54:59.603Z,14.36
2019-03-03T10:55:58.164Z,14.4
2019-03-03T10:56:56.715Z,14.37
2019-03-03T10:57:55.388Z,14.25
2019-03-03T10:58:54.011Z,14.36
2019-03-03T10:59:55.030Z,14.35
2019-03-03T11:00:51.426Z,14.37
2019-03-03T11:01:49.947Z,14.47
2019-03-03T11:02:48.522Z,14.47
2019-03-03T11:03:47.310Z,14.58
2019-03-03T11:04:46.013Z,14.68
2019-03-03T11:05:44.626Z,14.75
2019-03-03T11:06:43.240Z,14.65
2019-03-03T11:09:23.466Z,14.69
2019-03-03T11:10:22.075Z,14.6
2019-03-03T11:11:20.852Z,14.58
2019-03-03T11:12:19.663Z,14.58
2019-03-03T11:13:18.239Z,14.58
2019-03-03T11:14:16.971Z,14.64
2019-03-03T11:15:18.556Z,14.77
2019-03-03T11:16:14.350Z,14.69
2019-03-03T11:17:13.028Z,14.78
2019-03-03T11:18:13.898Z,14.86
2019-03-03T11:19:10.223Z,14.83
2019-03-03T11:20:08.803Z,14.81
2019-03-03T11:21:07.490Z,14.81
2019-03-03T11:22:06.047Z,15.02
2019-03-03T11:23:04.595Z,15.07
2019-03-03T11:24:03.482Z,15.07
2019-03-03T11:25:02.043Z,15.02
2019-03-03T11:26:00.614Z,15.11
2019-03-03T11:26:59.343Z,15.09
2019-03-03T11:30:54.021Z,15.34
2019-03-03T11:31:52.658Z,15.5
2019-03-03T11:32:51.351Z,15.47
2019-03-03T11:33:49.923Z,15.51
2019-03-03T11:34:48.538Z,15.64
2019-03-03T11:35:47.391Z,15.67
2019-03-03T11:38:05.025Z,15.8
2019-03-03T11:39:04.448Z,15.89
2019-03-03T11:40:03.232Z,15.94
2019-03-03T11:41:01.966Z,15.89
2019-03-03T11:42:00.557Z,15.86
2019-03-03T11:42:59.068Z,15.82
2019-03-03T11:43:57.841Z,15.9
2019-03-03T11:44:56.526Z,15.72
2019-03-03T11:45:55.290Z,15.75
2019-03-03T11:46:53.992Z,15.92
2019-03-03T11:47:52.762Z,15.97
2019-03-03T11:48:51.398Z,15.93
2019-03-03T11:49:50.076Z,15.97
2019-03-03T11:50:48.801Z,15.89
2019-03-03T11:51:47.559Z,15.93
2019-03-03T11:52:46.130Z,15.93
2019-03-03T11:53:44.723Z,16
2019-03-03T11:54:43.314Z,16.09
2019-03-03T11:55:41.936Z,16.01
2019-03-03T11:56:40.525Z,16.01
2019-03-03T11:57:39.109Z,16.07
2019-03-03T11:58:37.821Z,16.07
2019-03-03T11:59:36.374Z,15.94
2019-03-03T12:00:35.084Z,15.93
2019-03-03T12:01:33.712Z,15.86
2019-03-03T12:02:32.736Z,15.89
2019-03-03T12:03:30.861Z,15.96
2019-03-03T12:04:29.748Z,15.9
2019-03-03T12:05:28.389Z,15.93
2019-03-03T12:06:27.312Z,15.89
2019-03-03T12:07:25.954Z,15.72
2019-03-03T12:08:24.489Z,15.74
2019-03-03T12:09:23.275Z,15.71
2019-03-03T12:10:21.946Z,15.74
2019-03-03T12:11:20.489Z,15.69
2019-03-03T12:12:19.226Z,15.67
2019-03-03T12:13:17.923Z,15.6
2019-03-03T12:14:16.554Z,15.65
2019-03-03T12:15:15.375Z,15.78
2019-03-03T12:16:14.048Z,15.57
2019-03-03T12:17:12.613Z,15.59
2019-03-03T12:18:11.348Z,15.6
2019-03-03T12:19:10.012Z,15.57
2019-03-03T12:20:08.559Z,15.5
2019-03-03T12:21:07.205Z,15.59
2019-03-03T12:22:05.839Z,15.53
2019-03-03T12:23:04.424Z,15.49
2019-03-03T12:24:03.004Z,15.5
2019-03-03T12:25:01.759Z,15.57
2019-03-03T12:26:00.347Z,15.62
2019-03-03T12:26:58.925Z,15.47
2019-03-03T12:27:57.577Z,15.47
2019-03-03T12:28:56.167Z,15.41
2019-03-03T12:29:54.725Z,15.38
2019-03-03T12:30:53.283Z,15.53
2019-03-03T12:31:51.849Z,15.39
2019-03-03T12:32:50.455Z,15.35
2019-03-03T12:33:49.065Z,15.49
2019-03-03T12:34:47.950Z,15.54
2019-03-03T12:35:46.597Z,15.51
2019-03-03T12:36:45.244Z,15.43
2019-03-03T12:37:43.800Z,15.54
2019-03-03T12:38:42.424Z,15.5
2019-03-03T12:39:40.955Z,15.44
2019-03-03T12:40:39.678Z,15.34
2019-03-03T12:41:38.227Z,15.39
2019-03-03T12:42:36.813Z,15.38
2019-03-03T12:43:35.380Z,15.39
2019-03-03T12:44:34.001Z,15.38
2019-03-03T12:45:32.546Z,15.43
2019-03-03T12:46:31.280Z,15.36
2019-03-03T12:47:29.894Z,15.49
2019-03-03T12:48:28.423Z,15.36
2019-03-03T12:49:27.068Z,15.31
2019-03-03T12:50:25.754Z,15.21
2019-03-03T12:51:24.336Z,15.29
2019-03-03T12:52:22.916Z,15.29
2019-03-03T12:53:21.766Z,15.19
2019-03-03T12:54:20.350Z,15.19
2019-03-03T12:55:18.982Z,15.14
2019-03-03T12:56:17.595Z,15.27
2019-03-03T12:57:16.186Z,15.28
2019-03-03T12:58:14.776Z,15.28
2019-03-03T12:59:13.384Z,15.21
2019-03-03T13:00:11.930Z,15.28
2019-03-03T13:01:10.531Z,15.14
2019-03-03T13:02:09.201Z,15.19
2019-03-03T13:03:07.935Z,15.11
2019-03-03T13:04:06.497Z,15.17
2019-03-03T13:05:05.266Z,15.14
2019-03-03T13:06:03.899Z,15.2
2019-03-03T13:07:02.504Z,15.28
2019-03-03T13:08:01.187Z,15.23
2019-03-03T13:09:00.056Z,15.35
2019-03-03T13:09:58.366Z,15.29
2019-03-03T13:10:56.907Z,15.5
2019-03-03T13:11:55.743Z,15.46
2019-03-03T13:12:54.323Z,15.46
2019-03-03T13:13:52.913Z,15.44
2019-03-03T13:14:51.506Z,15.39
2019-03-03T13:15:50.049Z,15.35
2019-03-03T13:16:48.586Z,15.51
2019-03-03T13:17:48.335Z,15.51
2019-03-03T13:18:46.124Z,15.51
2019-03-03T13:19:44.693Z,15.49
2019-03-03T13:20:43.490Z,15.39
2019-03-03T13:21:42.084Z,15.31
2019-03-03T13:22:40.694Z,15.27
2019-03-03T13:23:39.462Z,15.28
2019-03-03T13:24:38.094Z,15.21
2019-03-03T13:25:36.859Z,15.23
2019-03-03T13:26:35.615Z,15.19
2019-03-03T13:27:34.189Z,15.35
2019-03-03T13:28:32.783Z,15.31
2019-03-03T13:29:31.543Z,15.39
2019-03-03T13:30:30.253Z,15.36
2019-03-03T13:31:28.919Z,15.36
2019-03-03T13:32:27.604Z,15.49
2019-03-03T13:33:26.228Z,15.36
2019-03-03T13:34:24.797Z,15.38
2019-03-03T13:35:23.506Z,15.35
2019-03-03T13:36:22.083Z,15.35
2019-03-03T13:37:20.590Z,15.44
2019-03-03T13:38:19.172Z,15.47
2019-03-03T13:39:17.861Z,15.69
2019-03-03T13:40:16.429Z,15.62
2019-03-03T13:41:15.102Z,15.67
2019-03-03T13:42:14.080Z,15.75
2019-03-03T13:43:12.705Z,15.72
2019-03-03T13:44:11.640Z,15.76
2019-03-03T13:45:10.255Z,15.94
2019-03-03T13:46:08.895Z,15.92
2019-03-03T13:47:07.789Z,15.92
2019-03-03T13:48:06.400Z,15.84
2019-03-03T13:49:05.163Z,15.92
2019-03-03T13:50:03.874Z,16
2019-03-03T13:51:02.439Z,16.05
2019-03-03T13:52:00.995Z,16.12
2019-03-03T13:52:59.579Z,16.12
2019-03-03T13:53:58.229Z,16.23
2019-03-03T13:54:57.057Z,16.27
2019-03-03T13:55:55.979Z,16.33
2019-03-03T13:58:36.122Z,16.6
2019-03-03T13:59:34.656Z,16.71
2019-03-03T14:00:33.413Z,16.82
2019-03-03T14:02:49.453Z,16.86
2019-03-03T14:03:48.164Z,16.83
2019-03-03T14:04:46.812Z,16.96
2019-03-03T14:05:45.503Z,16.88
2019-03-03T14:06:44.204Z,16.83
2019-03-03T14:07:42.861Z,16.71
2019-03-03T14:08:41.628Z,16.76
2019-03-03T14:09:40.283Z,16.76
2019-03-03T14:10:38.924Z,16.89
2019-03-03T14:11:37.564Z,16.93
2019-03-03T14:12:38.289Z,16.88
2019-03-03T14:13:34.779Z,16.98
2019-03-03T14:14:33.525Z,16.89
2019-03-03T14:15:32.106Z,16.83
2019-03-03T14:16:30.649Z,16.81
2019-03-03T14:17:29.284Z,16.81
2019-03-03T14:18:27.822Z,16.79
2019-03-03T14:19:26.473Z,16.64
2019-03-03T14:20:25.127Z,16.6
2019-03-03T14:22:48.069Z,16.53
2019-03-03T14:23:46.671Z,16.52
2019-03-03T14:24:45.296Z,16.64
2019-03-03T14:25:43.828Z,16.43
2019-03-03T14:26:42.403Z,16.46
2019-03-03T14:27:41.165Z,16.43
2019-03-03T14:28:39.989Z,16.25
2019-03-03T14:29:38.547Z,16.3
2019-03-03T14:30:37.152Z,16.34
2019-03-03T14:31:35.834Z,16.38
2019-03-03T14:32:34.353Z,16.2
2019-03-03T14:52:03.215Z,15.8
2019-03-03T14:53:01.847Z,15.89
2019-03-03T14:54:00.477Z,15.87
2019-03-03T14:54:59.223Z,15.94
2019-03-03T14:55:57.760Z,15.97
2019-03-03T14:56:56.333Z,15.93
2019-03-03T14:57:54.921Z,15.84
2019-03-03T14:58:53.481Z,15.83
2019-03-03T14:59:52.041Z,15.86
2019-03-03T15:00:50.619Z,15.89
2019-03-03T15:01:49.361Z,15.86
2019-03-03T15:02:48.075Z,15.87
2019-03-03T15:03:46.698Z,15.75
2019-03-03T15:04:45.327Z,15.76
2019-03-03T15:05:44.158Z,15.82
2019-03-03T15:06:42.712Z,15.76
2019-03-03T15:07:41.524Z,15.72
2019-03-03T15:08:40.137Z,15.68
2019-03-03T15:09:38.935Z,15.65
2019-03-03T15:10:37.829Z,15.64
2019-03-03T15:11:36.728Z,15.68
2019-03-03T15:12:35.268Z,15.69
2019-03-03T15:13:33.900Z,15.67
2019-03-03T15:14:32.648Z,15.64
2019-03-03T15:15:31.172Z,15.56
2019-03-03T15:16:29.724Z,15.56
2019-03-03T15:17:28.355Z,15.56
2019-03-03T15:18:26.908Z,15.59
2019-03-03T15:19:25.800Z,15.59
2019-03-03T15:20:24.383Z,15.57
2019-03-03T15:21:25.246Z,15.56
2019-03-03T15:22:21.851Z,15.5
2019-03-03T15:23:20.444Z,15.49
2019-03-03T15:24:19.105Z,15.49
2019-03-03T15:25:18.009Z,15.5
2019-03-03T15:26:16.580Z,15.46
2019-03-03T15:27:15.193Z,15.5
2019-03-03T15:28:13.801Z,15.46
2019-03-03T15:29:12.630Z,15.44
2019-03-03T15:30:11.435Z,15.51
2019-03-03T15:31:10.117Z,15.5
2019-03-03T15:32:08.762Z,15.38
2019-03-03T15:33:07.564Z,15.51
2019-03-03T15:34:06.250Z,15.41
2019-03-03T15:35:04.889Z,15.44
2019-03-03T15:36:03.742Z,15.34
2019-03-03T15:37:02.346Z,15.38
2019-03-03T15:38:00.988Z,15.34
2019-03-03T15:38:59.585Z,15.35
2019-03-03T15:39:58.149Z,15.27
2019-03-03T15:40:56.782Z,15.2
2019-03-03T15:41:55.725Z,15.31
2019-03-03T15:42:54.385Z,15.34
2019-03-03T15:43:53.071Z,15.21
2019-03-03T15:44:51.681Z,15.36
2019-03-03T15:45:50.390Z,15.16
2019-03-03T15:48:30.524Z,15.19
2019-03-03T15:49:29.319Z,15.13
2019-03-03T15:50:28.115Z,15.14
2019-03-03T15:51:26.804Z,15.2
2019-03-03T15:52:26.082Z,15.01
2019-03-03T15:53:24.664Z,15.11
2019-03-03T15:54:23.646Z,15.2
2019-03-03T15:55:22.338Z,15.27
2019-03-03T15:56:20.954Z,15.2
2019-03-03T15:57:19.745Z,15.14
2019-03-03T15:58:18.403Z,15.16
2019-03-03T16:00:41.277Z,15.01
2019-03-03T16:02:42.003Z,15.14
2019-03-03T16:03:40.722Z,14.98
2019-03-03T16:04:39.464Z,15.03
2019-03-03T16:05:38.116Z,15.02
2019-03-03T16:06:36.739Z,15.07
2019-03-03T16:07:35.486Z,15.07
2019-03-03T16:08:34.153Z,15.06
2019-03-03T16:09:32.821Z,15.07
2019-03-03T16:10:31.497Z,15.03
2019-03-03T16:11:30.327Z,15.02
2019-03-03T16:12:29.754Z,15.02
2019-03-03T16:13:28.789Z,14.99
2019-03-03T16:14:27.467Z,15.02
2019-03-03T16:18:06.211Z,14.94
2019-03-03T16:19:04.900Z,14.91
2019-03-03T16:21:45.361Z,14.99
2019-03-03T16:22:44.168Z,14.96
2019-03-03T16:23:43.162Z,14.95
2019-03-03T16:26:06.715Z,15.01
2019-03-03T16:27:06.427Z,14.98
2019-03-03T16:28:05.103Z,14.91
2019-03-03T16:29:03.818Z,14.88
2019-03-03T16:30:02.566Z,14.8
2019-03-03T16:31:01.224Z,14.83
2019-03-03T16:32:00.028Z,14.84
2019-03-03T16:32:58.623Z,14.8
2019-03-03T16:33:57.277Z,14.81
2019-03-03T16:34:55.977Z,14.75
2019-03-03T16:35:54.735Z,14.94
2019-03-03T16:36:53.490Z,14.86
2019-03-03T16:37:52.202Z,14.86
2019-03-03T16:38:50.857Z,14.96
2019-03-03T16:39:49.847Z,14.91
2019-03-03T16:40:48.594Z,14.88
2019-03-03T16:41:47.159Z,14.83
2019-03-03T16:43:28.029Z,14.83
2019-03-03T16:44:26.662Z,14.83
2019-03-03T16:45:25.362Z,14.84
2019-03-03T16:46:24.284Z,14.84
2019-03-03T16:47:22.904Z,14.83
2019-03-03T16:48:21.917Z,14.75
2019-03-03T16:49:20.478Z,14.84
2019-03-03T16:50:19.019Z,14.81
2019-03-03T16:51:17.693Z,14.8
2019-03-03T16:52:16.354Z,14.84
2019-03-03T16:53:15.008Z,14.81
2019-03-03T16:55:55.548Z,14.89
2019-03-03T16:56:54.176Z,14.81
2019-03-03T16:57:52.757Z,14.8
2019-03-03T16:58:51.457Z,14.77
2019-03-03T16:59:50.229Z,14.83
2019-03-03T17:00:48.744Z,14.75
2019-03-03T17:01:47.534Z,14.73
2019-03-03T17:02:46.188Z,14.69
2019-03-03T17:03:44.767Z,14.75
2019-03-03T17:04:43.356Z,14.72
2019-03-03T17:05:41.993Z,14.73
2019-03-03T17:06:40.540Z,14.7
2019-03-03T17:07:39.152Z,14.78
2019-03-03T17:10:19.517Z,14.62
2019-03-03T17:11:18.202Z,14.64
2019-03-03T17:12:16.826Z,14.72
2019-03-03T17:13:15.421Z,14.65
2019-03-03T17:14:14.016Z,14.62
2019-03-03T17:15:12.588Z,14.68
2019-03-03T17:16:11.176Z,14.68
2019-03-03T17:30:33.489Z,14.68
2019-03-03T17:31:32.172Z,14.64